sensor_id;sensor_type;location;lat;lon;timestamp;P1;durP1;ratioP1;P2;durP2;ratioP2
65187;SDS011;51775;51.148;6.950;2023-04-23T00:01:09;2.10;;;1.50;;
65187;SDS011;51775;51.148;6.950;2023-04-23T00:03:35;2.20;;;1.58;;
65187;SDS011;51775;51.148;6.950;2023-04-23T00:06:05;2.22;;;1.60;;
65187;SDS011;51775;51.148;6.950;2023-04-23T00:08:32;2.63;;;1.67;;
65187;SDS011;51775;51.148;6.950;2023-04-23T00:10:58;2.13;;;1.42;;
65187;SDS011;51775;51.148;6.950;2023-04-23T00:13:23;2.20;;;1.50;;
65187;SDS011;51775;51.148;6.950;2023-04-23T00:15:49;2.85;;;1.73;;
65187;SDS011;51775;51.148;6.950;2023-04-23T00:18:15;2.85;;;1.50;;
65187;SDS011;51775;51.148;6.950;2023-04-23T00:20:40;2.30;;;1.70;;
65187;SDS011;51775;51.148;6.950;2023-04-23T00:23:05;2.20;;;1.50;;
65187;SDS011;51775;51.148;6.950;2023-04-23T00:25:31;2.38;;;1.50;;
65187;SDS011;51775;51.148;6.950;2023-04-23T00:27:56;2.10;;;1.50;;
65187;SDS011;51775;51.148;6.950;2023-04-23T00:30:21;2.28;;;1.50;;
65187;SDS011;51775;51.148;6.950;2023-04-23T00:32:47;2.05;;;1.42;;
65187;SDS011;51775;51.148;6.950;2023-04-23T00:35:12;2.40;;;1.60;;
65187;SDS011;51775;51.148;6.950;2023-04-23T00:37:37;2.22;;;1.63;;
65187;SDS011;51775;51.148;6.950;2023-04-23T00:40:03;2.70;;;1.67;;
65187;SDS011;51775;51.148;6.950;2023-04-23T00:42:28;2.60;;;1.70;;
65187;SDS011;51775;51.148;6.950;2023-04-23T00:44:53;2.10;;;1.60;;
65187;SDS011;51775;51.148;6.950;2023-04-23T00:47:19;3.38;;;1.55;;
65187;SDS011;51775;51.148;6.950;2023-04-23T00:49:45;1.90;;;1.50;;
65187;SDS011;51775;51.148;6.950;2023-04-23T00:52:10;2.97;;;1.63;;
65187;SDS011;51775;51.148;6.950;2023-04-23T00:54:35;2.10;;;1.40;;
65187;SDS011;51775;51.148;6.950;2023-04-23T00:57:01;2.83;;;1.70;;
65187;SDS011;51775;51.148;6.950;2023-04-23T00:59:27;2.35;;;1.50;;
65187;SDS011;51775;51.148;6.950;2023-04-23T01:01:54;2.17;;;1.52;;
65187;SDS011;51775;51.148;6.950;2023-04-23T01:04:20;2.45;;;1.70;;
65187;SDS011;51775;51.148;6.950;2023-04-23T01:06:47;2.20;;;1.50;;
65187;SDS011;51775;51.148;6.950;2023-04-23T01:09:13;3.40;;;1.70;;
65187;SDS011;51775;51.148;6.950;2023-04-23T01:11:41;2.38;;;1.77;;
65187;SDS011;51775;51.148;6.950;2023-04-23T01:14:08;2.50;;;1.60;;
65187;SDS011;51775;51.148;6.950;2023-04-23T01:16:34;2.70;;;1.70;;
65187;SDS011;51775;51.148;6.950;2023-04-23T01:19:00;2.50;;;1.67;;
65187;SDS011;51775;51.148;6.950;2023-04-23T01:21:25;2.65;;;1.75;;
65187;SDS011;51775;51.148;6.950;2023-04-23T01:23:50;2.50;;;1.70;;
65187;SDS011;51775;51.148;6.950;2023-04-23T01:26:16;2.70;;;1.80;;
65187;SDS011;51775;51.148;6.950;2023-04-23T01:28:41;2.50;;;1.70;;
65187;SDS011;51775;51.148;6.950;2023-04-23T01:31:08;2.38;;;1.55;;
65187;SDS011;51775;51.148;6.950;2023-04-23T01:33:33;2.80;;;1.90;;
65187;SDS011;51775;51.148;6.950;2023-04-23T01:35:59;2.30;;;1.70;;
65187;SDS011;51775;51.148;6.950;2023-04-23T01:38:25;2.50;;;1.70;;
65187;SDS011;51775;51.148;6.950;2023-04-23T01:40:54;2.40;;;1.63;;
65187;SDS011;51775;51.148;6.950;2023-04-23T01:43:19;2.10;;;1.50;;
65187;SDS011;51775;51.148;6.950;2023-04-23T01:45:46;2.95;;;1.73;;
65187;SDS011;51775;51.148;6.950;2023-04-23T01:48:13;2.38;;;1.60;;
65187;SDS011;51775;51.148;6.950;2023-04-23T01:50:38;2.40;;;1.40;;
65187;SDS011;51775;51.148;6.950;2023-04-23T01:53:04;2.38;;;1.80;;
65187;SDS011;51775;51.148;6.950;2023-04-23T01:55:29;2.55;;;1.75;;
65187;SDS011;51775;51.148;6.950;2023-04-23T01:57:55;2.60;;;1.70;;
65187;SDS011;51775;51.148;6.950;2023-04-23T02:00:20;2.53;;;1.65;;
65187;SDS011;51775;51.148;6.950;2023-04-23T02:02:46;2.30;;;1.50;;
65187;SDS011;51775;51.148;6.950;2023-04-23T02:05:12;2.80;;;1.75;;
65187;SDS011;51775;51.148;6.950;2023-04-23T02:07:40;2.33;;;1.60;;
65187;SDS011;51775;51.148;6.950;2023-04-23T02:10:05;2.45;;;1.50;;
65187;SDS011;51775;51.148;6.950;2023-04-23T02:12:31;3.80;;;1.77;;
65187;SDS011;51775;51.148;6.950;2023-04-23T02:14:57;3.22;;;1.80;;
65187;SDS011;51775;51.148;6.950;2023-04-23T02:17:22;2.70;;;1.80;;
65187;SDS011;51775;51.148;6.950;2023-04-23T02:19:48;2.30;;;1.60;;
65187;SDS011;51775;51.148;6.950;2023-04-23T02:22:14;2.60;;;1.70;;
65187;SDS011;51775;51.148;6.950;2023-04-23T02:24:39;2.50;;;1.67;;
65187;SDS011;51775;51.148;6.950;2023-04-23T02:27:05;2.20;;;1.50;;
65187;SDS011;51775;51.148;6.950;2023-04-23T02:29:30;2.33;;;1.55;;
65187;SDS011;51775;51.148;6.950;2023-04-23T02:31:55;2.60;;;1.60;;
65187;SDS011;51775;51.148;6.950;2023-04-23T02:34:21;3.22;;;2.00;;
65187;SDS011;51775;51.148;6.950;2023-04-23T02:36:46;2.28;;;1.70;;
65187;SDS011;51775;51.148;6.950;2023-04-23T02:39:11;2.55;;;1.50;;
65187;SDS011;51775;51.148;6.950;2023-04-23T02:41:36;2.53;;;1.70;;
65187;SDS011;51775;51.148;6.950;2023-04-23T02:44:02;2.28;;;1.63;;
65187;SDS011;51775;51.148;6.950;2023-04-23T02:46:27;2.30;;;1.70;;
65187;SDS011;51775;51.148;6.950;2023-04-23T02:48:52;2.50;;;1.70;;
65187;SDS011;51775;51.148;6.950;2023-04-23T02:51:17;3.05;;;1.80;;
65187;SDS011;51775;51.148;6.950;2023-04-23T02:53:43;2.95;;;1.67;;
65187;SDS011;51775;51.148;6.950;2023-04-23T02:56:08;2.45;;;1.65;;
65187;SDS011;51775;51.148;6.950;2023-04-23T02:58:33;2.42;;;1.50;;
65187;SDS011;51775;51.148;6.950;2023-04-23T03:00:59;2.25;;;1.48;;
65187;SDS011;51775;51.148;6.950;2023-04-23T03:03:25;2.55;;;1.70;;
65187;SDS011;51775;51.148;6.950;2023-04-23T03:05:51;2.15;;;1.63;;
65187;SDS011;51775;51.148;6.950;2023-04-23T03:08:16;2.53;;;1.60;;
65187;SDS011;51775;51.148;6.950;2023-04-23T03:10:42;2.38;;;1.60;;
65187;SDS011;51775;51.148;6.950;2023-04-23T03:13:07;2.42;;;1.50;;
65187;SDS011;51775;51.148;6.950;2023-04-23T03:15:32;2.40;;;1.60;;
65187;SDS011;51775;51.148;6.950;2023-04-23T03:17:58;2.30;;;1.70;;
65187;SDS011;51775;51.148;6.950;2023-04-23T03:20:23;2.85;;;1.90;;
65187;SDS011;51775;51.148;6.950;2023-04-23T03:22:48;2.42;;;1.70;;
65187;SDS011;51775;51.148;6.950;2023-04-23T03:25:14;2.72;;;1.80;;
65187;SDS011;51775;51.148;6.950;2023-04-23T03:27:39;2.38;;;1.60;;
65187;SDS011;51775;51.148;6.950;2023-04-23T03:30:05;3.08;;;1.75;;
65187;SDS011;51775;51.148;6.950;2023-04-23T03:32:31;5.10;;;3.20;;
65187;SDS011;51775;51.148;6.950;2023-04-23T03:34:56;2.67;;;1.70;;
65187;SDS011;51775;51.148;6.950;2023-04-23T03:37:22;2.72;;;1.67;;
65187;SDS011;51775;51.148;6.950;2023-04-23T03:39:47;2.38;;;1.50;;
65187;SDS011;51775;51.148;6.950;2023-04-23T03:42:12;2.70;;;1.80;;
65187;SDS011;51775;51.148;6.950;2023-04-23T03:44:37;2.70;;;1.75;;
65187;SDS011;51775;51.148;6.950;2023-04-23T03:47:03;2.50;;;1.65;;
65187;SDS011;51775;51.148;6.950;2023-04-23T03:49:28;2.65;;;1.70;;
65187;SDS011;51775;51.148;6.950;2023-04-23T03:51:53;3.47;;;1.92;;
65187;SDS011;51775;51.148;6.950;2023-04-23T03:54:18;2.33;;;1.60;;
65187;SDS011;51775;51.148;6.950;2023-04-23T03:56:44;2.50;;;1.70;;
65187;SDS011;51775;51.148;6.950;2023-04-23T03:59:09;3.22;;;2.03;;
65187;SDS011;51775;51.148;6.950;2023-04-23T04:01:34;2.70;;;1.80;;
65187;SDS011;51775;51.148;6.950;2023-04-23T04:03:59;2.72;;;1.70;;
65187;SDS011;51775;51.148;6.950;2023-04-23T04:06:25;3.05;;;2.00;;
65187;SDS011;51775;51.148;6.950;2023-04-23T04:08:50;2.50;;;1.60;;
65187;SDS011;51775;51.148;6.950;2023-04-23T04:11:15;2.30;;;1.60;;
65187;SDS011;51775;51.148;6.950;2023-04-23T04:13:41;2.50;;;1.73;;
65187;SDS011;51775;51.148;6.950;2023-04-23T04:16:06;2.88;;;1.95;;
65187;SDS011;51775;51.148;6.950;2023-04-23T04:18:31;2.60;;;1.83;;
65187;SDS011;51775;51.148;6.950;2023-04-23T04:20:56;2.70;;;1.75;;
65187;SDS011;51775;51.148;6.950;2023-04-23T04:23:24;2.30;;;1.60;;
65187;SDS011;51775;51.148;6.950;2023-04-23T04:25:49;3.20;;;1.85;;
65187;SDS011;51775;51.148;6.950;2023-04-23T04:28:14;2.47;;;1.75;;
65187;SDS011;51775;51.148;6.950;2023-04-23T04:30:40;2.45;;;1.70;;
65187;SDS011;51775;51.148;6.950;2023-04-23T04:33:05;3.00;;;2.00;;
65187;SDS011;51775;51.148;6.950;2023-04-23T04:35:30;2.60;;;1.60;;
65187;SDS011;51775;51.148;6.950;2023-04-23T04:37:55;2.97;;;1.80;;
65187;SDS011;51775;51.148;6.950;2023-04-23T04:40:21;2.30;;;1.70;;
65187;SDS011;51775;51.148;6.950;2023-04-23T04:42:46;2.33;;;1.60;;
65187;SDS011;51775;51.148;6.950;2023-04-23T04:45:11;3.30;;;2.00;;
65187;SDS011;51775;51.148;6.950;2023-04-23T04:47:37;2.22;;;1.67;;
65187;SDS011;51775;51.148;6.950;2023-04-23T04:50:02;2.60;;;1.70;;
65187;SDS011;51775;51.148;6.950;2023-04-23T04:52:29;2.30;;;1.60;;
65187;SDS011;51775;51.148;6.950;2023-04-23T04:54:54;2.53;;;1.58;;
65187;SDS011;51775;51.148;6.950;2023-04-23T04:57:19;2.30;;;1.60;;
65187;SDS011;51775;51.148;6.950;2023-04-23T04:59:45;2.47;;;1.60;;
65187;SDS011;51775;51.148;6.950;2023-04-23T05:02:10;2.63;;;1.67;;
65187;SDS011;51775;51.148;6.950;2023-04-23T05:04:35;2.42;;;1.70;;
65187;SDS011;51775;51.148;6.950;2023-04-23T05:07:00;2.88;;;1.90;;
65187;SDS011;51775;51.148;6.950;2023-04-23T05:09:26;2.90;;;1.70;;
65187;SDS011;51775;51.148;6.950;2023-04-23T05:11:51;2.50;;;1.70;;
65187;SDS011;51775;51.148;6.950;2023-04-23T05:14:16;2.40;;;1.60;;
65187;SDS011;51775;51.148;6.950;2023-04-23T05:16:41;2.15;;;1.55;;
65187;SDS011;51775;51.148;6.950;2023-04-23T05:19:07;2.67;;;1.70;;
65187;SDS011;51775;51.148;6.950;2023-04-23T05:21:32;3.00;;;1.75;;
65187;SDS011;51775;51.148;6.950;2023-04-23T05:23:58;2.58;;;1.60;;
65187;SDS011;51775;51.148;6.950;2023-04-23T05:26:23;1.95;;;1.40;;
65187;SDS011;51775;51.148;6.950;2023-04-23T05:28:48;2.42;;;1.65;;
65187;SDS011;51775;51.148;6.950;2023-04-23T05:31:13;2.28;;;1.58;;
65187;SDS011;51775;51.148;6.950;2023-04-23T05:33:39;3.13;;;1.90;;
65187;SDS011;51775;51.148;6.950;2023-04-23T05:36:04;2.83;;;1.77;;
65187;SDS011;51775;51.148;6.950;2023-04-23T05:38:29;2.35;;;1.73;;
65187;SDS011;51775;51.148;6.950;2023-04-23T05:40:55;2.35;;;1.60;;
65187;SDS011;51775;51.148;6.950;2023-04-23T05:43:20;2.30;;;1.40;;
65187;SDS011;51775;51.148;6.950;2023-04-23T05:45:45;2.53;;;1.70;;
65187;SDS011;51775;51.148;6.950;2023-04-23T05:48:11;2.70;;;1.52;;
65187;SDS011;51775;51.148;6.950;2023-04-23T05:50:36;2.50;;;1.70;;
65187;SDS011;51775;51.148;6.950;2023-04-23T05:53:01;3.05;;;1.75;;
65187;SDS011;51775;51.148;6.950;2023-04-23T05:55:26;2.30;;;1.60;;
65187;SDS011;51775;51.148;6.950;2023-04-23T05:57:52;2.20;;;1.50;;
65187;SDS011;51775;51.148;6.950;2023-04-23T06:00:17;2.95;;;1.77;;
65187;SDS011;51775;51.148;6.950;2023-04-23T06:02:42;2.53;;;1.63;;
65187;SDS011;51775;51.148;6.950;2023-04-23T06:05:08;2.50;;;1.70;;
65187;SDS011;51775;51.148;6.950;2023-04-23T06:07:34;3.38;;;1.70;;
65187;SDS011;51775;51.148;6.950;2023-04-23T06:09:59;2.30;;;1.60;;
65187;SDS011;51775;51.148;6.950;2023-04-23T06:12:24;2.33;;;1.65;;
65187;SDS011;51775;51.148;6.950;2023-04-23T06:14:51;2.20;;;1.50;;
65187;SDS011;51775;51.148;6.950;2023-04-23T06:17:17;2.95;;;1.70;;
65187;SDS011;51775;51.148;6.950;2023-04-23T06:19:42;2.75;;;1.50;;
65187;SDS011;51775;51.148;6.950;2023-04-23T06:22:07;2.42;;;1.67;;
65187;SDS011;51775;51.148;6.950;2023-04-23T06:24:32;2.65;;;1.70;;
65187;SDS011;51775;51.148;6.950;2023-04-23T06:26:59;2.78;;;1.85;;
65187;SDS011;51775;51.148;6.950;2023-04-23T06:29:24;3.05;;;1.88;;
65187;SDS011;51775;51.148;6.950;2023-04-23T06:31:49;2.20;;;1.58;;
65187;SDS011;51775;51.148;6.950;2023-04-23T06:34:14;2.60;;;1.88;;
65187;SDS011;51775;51.148;6.950;2023-04-23T06:36:40;2.80;;;1.70;;
65187;SDS011;51775;51.148;6.950;2023-04-23T06:39:05;2.40;;;1.70;;
65187;SDS011;51775;51.148;6.950;2023-04-23T06:41:33;2.33;;;1.60;;
65187;SDS011;51775;51.148;6.950;2023-04-23T06:43:59;2.50;;;1.70;;
65187;SDS011;51775;51.148;6.950;2023-04-23T06:46:24;2.35;;;1.65;;
65187;SDS011;51775;51.148;6.950;2023-04-23T06:48:49;2.30;;;1.60;;
65187;SDS011;51775;51.148;6.950;2023-04-23T06:51:14;2.45;;;1.70;;
65187;SDS011;51775;51.148;6.950;2023-04-23T06:53:40;2.70;;;1.65;;
65187;SDS011;51775;51.148;6.950;2023-04-23T06:56:06;2.47;;;1.63;;
65187;SDS011;51775;51.148;6.950;2023-04-23T06:58:32;2.90;;;1.60;;
65187;SDS011;51775;51.148;6.950;2023-04-23T07:00:57;2.60;;;1.60;;
65187;SDS011;51775;51.148;6.950;2023-04-23T07:03:23;2.85;;;1.80;;
65187;SDS011;51775;51.148;6.950;2023-04-23T07:05:48;2.15;;;1.50;;
65187;SDS011;51775;51.148;6.950;2023-04-23T07:08:13;2.20;;;1.40;;
65187;SDS011;51775;51.148;6.950;2023-04-23T07:10:38;2.88;;;1.58;;
65187;SDS011;51775;51.148;6.950;2023-04-23T07:13:04;2.30;;;1.70;;
65187;SDS011;51775;51.148;6.950;2023-04-23T07:15:29;2.53;;;1.60;;
65187;SDS011;51775;51.148;6.950;2023-04-23T07:17:54;2.30;;;1.48;;
65187;SDS011;51775;51.148;6.950;2023-04-23T07:20:19;3.35;;;1.67;;
65187;SDS011;51775;51.148;6.950;2023-04-23T07:22:45;3.08;;;1.90;;
65187;SDS011;51775;51.148;6.950;2023-04-23T07:25:10;2.83;;;1.70;;
65187;SDS011;51775;51.148;6.950;2023-04-23T07:27:35;2.30;;;1.52;;
65187;SDS011;51775;51.148;6.950;2023-04-23T07:30:01;2.60;;;1.77;;
65187;SDS011;51775;51.148;6.950;2023-04-23T07:32:26;2.53;;;1.58;;
65187;SDS011;51775;51.148;6.950;2023-04-23T07:34:51;2.38;;;1.65;;
65187;SDS011;51775;51.148;6.950;2023-04-23T07:37:16;2.60;;;1.80;;
65187;SDS011;51775;51.148;6.950;2023-04-23T07:39:42;2.10;;;1.50;;
65187;SDS011;51775;51.148;6.950;2023-04-23T07:42:07;1.83;;;1.40;;
65187;SDS011;51775;51.148;6.950;2023-04-23T07:44:32;2.50;;;1.70;;
65187;SDS011;51775;51.148;6.950;2023-04-23T07:46:57;3.35;;;1.45;;
65187;SDS011;51775;51.148;6.950;2023-04-23T07:49:23;5.15;;;1.63;;
65187;SDS011;51775;51.148;6.950;2023-04-23T07:51:48;2.00;;;1.42;;
65187;SDS011;51775;51.148;6.950;2023-04-23T07:54:13;2.15;;;1.40;;
65187;SDS011;51775;51.148;6.950;2023-04-23T07:56:39;2.10;;;1.40;;
65187;SDS011;51775;51.148;6.950;2023-04-23T07:59:04;1.98;;;1.35;;
65187;SDS011;51775;51.148;6.950;2023-04-23T08:01:30;2.20;;;1.60;;
65187;SDS011;51775;51.148;6.950;2023-04-23T08:03:56;2.00;;;1.40;;
65187;SDS011;51775;51.148;6.950;2023-04-23T08:06:21;2.60;;;1.48;;
65187;SDS011;51775;51.148;6.950;2023-04-23T08:08:47;2.20;;;1.60;;
65187;SDS011;51775;51.148;6.950;2023-04-23T08:11:14;2.00;;;1.42;;
65187;SDS011;51775;51.148;6.950;2023-04-23T08:13:39;1.90;;;1.30;;
65187;SDS011;51775;51.148;6.950;2023-04-23T08:16:05;4.97;;;1.45;;
65187;SDS011;51775;51.148;6.950;2023-04-23T08:18:30;2.28;;;1.50;;
65187;SDS011;51775;51.148;6.950;2023-04-23T08:20:55;2.17;;;1.50;;
65187;SDS011;51775;51.148;6.950;2023-04-23T08:23:21;2.13;;;1.33;;
65187;SDS011;51775;51.148;6.950;2023-04-23T08:25:46;1.80;;;1.30;;
65187;SDS011;51775;51.148;6.950;2023-04-23T08:28:11;2.10;;;1.52;;
65187;SDS011;51775;51.148;6.950;2023-04-23T08:30:37;1.80;;;1.38;;
65187;SDS011;51775;51.148;6.950;2023-04-23T08:33:02;2.33;;;1.40;;
65187;SDS011;51775;51.148;6.950;2023-04-23T08:35:28;2.75;;;1.20;;
65187;SDS011;51775;51.148;6.950;2023-04-23T08:37:53;3.03;;;1.50;;
65187;SDS011;51775;51.148;6.950;2023-04-23T08:40:18;2.20;;;1.20;;
65187;SDS011;51775;51.148;6.950;2023-04-23T08:42:47;1.65;;;1.10;;
65187;SDS011;51775;51.148;6.950;2023-04-23T08:45:14;6.30;;;1.30;;
65187;SDS011;51775;51.148;6.950;2023-04-23T08:47:39;1.98;;;1.20;;
65187;SDS011;51775;51.148;6.950;2023-04-23T08:50:05;2.00;;;1.30;;
65187;SDS011;51775;51.148;6.950;2023-04-23T08:52:32;3.03;;;1.30;;
65187;SDS011;51775;51.148;6.950;2023-04-23T08:55:02;2.60;;;1.20;;
65187;SDS011;51775;51.148;6.950;2023-04-23T08:57:31;2.08;;;1.27;;
65187;SDS011;51775;51.148;6.950;2023-04-23T08:59:57;3.28;;;1.30;;
65187;SDS011;51775;51.148;6.950;2023-04-23T09:02:22;2.33;;;1.30;;
65187;SDS011;51775;51.148;6.950;2023-04-23T09:04:48;1.88;;;1.33;;
65187;SDS011;51775;51.148;6.950;2023-04-23T09:07:13;1.50;;;1.02;;
65187;SDS011;51775;51.148;6.950;2023-04-23T09:09:40;3.50;;;1.20;;
65187;SDS011;51775;51.148;6.950;2023-04-23T09:12:05;3.08;;;1.20;;
65187;SDS011;51775;51.148;6.950;2023-04-23T09:14:33;2.05;;;1.20;;
65187;SDS011;51775;51.148;6.950;2023-04-23T09:17:01;2.25;;;1.17;;
65187;SDS011;51775;51.148;6.950;2023-04-23T09:19:27;1.80;;;1.20;;
65187;SDS011;51775;51.148;6.950;2023-04-23T09:21:52;2.00;;;1.30;;
65187;SDS011;51775;51.148;6.950;2023-04-23T09:24:20;2.65;;;1.10;;
65187;SDS011;51775;51.148;6.950;2023-04-23T09:26:47;1.83;;;1.13;;
65187;SDS011;51775;51.148;6.950;2023-04-23T09:29:17;1.25;;;1.02;;
65187;SDS011;51775;51.148;6.950;2023-04-23T09:31:44;2.50;;;1.10;;
65187;SDS011;51775;51.148;6.950;2023-04-23T09:34:33;2.15;;;1.20;;
65187;SDS011;51775;51.148;6.950;2023-04-23T09:36:59;1.67;;;1.10;;
65187;SDS011;51775;51.148;6.950;2023-04-23T09:39:25;1.85;;;1.20;;
65187;SDS011;51775;51.148;6.950;2023-04-23T09:41:50;1.75;;;1.20;;
65187;SDS011;51775;51.148;6.950;2023-04-23T09:44:17;3.35;;;1.23;;
65187;SDS011;51775;51.148;6.950;2023-04-23T09:46:43;1.88;;;1.00;;
65187;SDS011;51775;51.148;6.950;2023-04-23T09:49:09;1.35;;;1.00;;
65187;SDS011;51775;51.148;6.950;2023-04-23T09:51:36;1.67;;;1.10;;
65187;SDS011;51775;51.148;6.950;2023-04-23T09:54:02;2.00;;;1.10;;
65187;SDS011;51775;51.148;6.950;2023-04-23T09:56:28;1.75;;;1.05;;
65187;SDS011;51775;51.148;6.950;2023-04-23T09:58:54;1.70;;;1.10;;
65187;SDS011;51775;51.148;6.950;2023-04-23T10:01:26;1.73;;;1.00;;
65187;SDS011;51775;51.148;6.950;2023-04-23T10:03:52;1.27;;;0.90;;
65187;SDS011;51775;51.148;6.950;2023-04-23T10:06:17;1.60;;;1.10;;
65187;SDS011;51775;51.148;6.950;2023-04-23T10:08:42;2.60;;;1.10;;
65187;SDS011;51775;51.148;6.950;2023-04-23T10:11:08;1.88;;;1.10;;
65187;SDS011;51775;51.148;6.950;2023-04-23T10:13:34;1.90;;;1.20;;
65187;SDS011;51775;51.148;6.950;2023-04-23T10:16:03;1.40;;;1.00;;
65187;SDS011;51775;51.148;6.950;2023-04-23T10:18:29;2.03;;;1.23;;
65187;SDS011;51775;51.148;6.950;2023-04-23T10:20:56;1.48;;;1.00;;
65187;SDS011;51775;51.148;6.950;2023-04-23T10:23:22;1.00;;;0.90;;
65187;SDS011;51775;51.148;6.950;2023-04-23T10:25:49;1.42;;;1.10;;
65187;SDS011;51775;51.148;6.950;2023-04-23T10:28:18;3.40;;;1.17;;
65187;SDS011;51775;51.148;6.950;2023-04-23T10:30:46;1.23;;;0.82;;
65187;SDS011;51775;51.148;6.950;2023-04-23T10:33:13;1.90;;;1.00;;
65187;SDS011;51775;51.148;6.950;2023-04-23T10:35:39;1.70;;;1.00;;
65187;SDS011;51775;51.148;6.950;2023-04-23T10:38:04;1.40;;;0.93;;
65187;SDS011;51775;51.148;6.950;2023-04-23T10:40:31;1.23;;;1.00;;
65187;SDS011;51775;51.148;6.950;2023-04-23T10:42:58;1.02;;;0.82;;
65187;SDS011;51775;51.148;6.950;2023-04-23T10:45:24;1.40;;;0.90;;
65187;SDS011;51775;51.148;6.950;2023-04-23T10:47:49;1.70;;;0.90;;
65187;SDS011;51775;51.148;6.950;2023-04-23T10:50:26;1.27;;;0.90;;
65187;SDS011;51775;51.148;6.950;2023-04-23T10:52:53;2.00;;;0.90;;
65187;SDS011;51775;51.148;6.950;2023-04-23T10:55:20;1.25;;;0.90;;
65187;SDS011;51775;51.148;6.950;2023-04-23T10:58:06;1.30;;;0.90;;
65187;SDS011;51775;51.148;6.950;2023-04-23T11:00:43;1.30;;;0.80;;
65187;SDS011;51775;51.148;6.950;2023-04-23T11:06:03;1.40;;;0.82;;
65187;SDS011;51775;51.148;6.950;2023-04-23T11:08:30;2.08;;;0.90;;
65187;SDS011;51775;51.148;6.950;2023-04-23T11:10:57;1.33;;;0.90;;
65187;SDS011;51775;51.148;6.950;2023-04-23T11:13:24;1.00;;;0.80;;
65187;SDS011;51775;51.148;6.950;2023-04-23T11:16:12;1.30;;;0.90;;
65187;SDS011;51775;51.148;6.950;2023-04-23T11:18:58;1.13;;;0.80;;
65187;SDS011;51775;51.148;6.950;2023-04-23T11:24:18;1.10;;;0.75;;
65187;SDS011;51775;51.148;6.950;2023-04-23T11:26:46;0.98;;;0.70;;
65187;SDS011;51775;51.148;6.950;2023-04-23T11:29:15;1.08;;;0.80;;
65187;SDS011;51775;51.148;6.950;2023-04-23T11:31:42;1.35;;;0.90;;
65187;SDS011;51775;51.148;6.950;2023-04-23T11:34:08;1.58;;;0.80;;
65187;SDS011;51775;51.148;6.950;2023-04-23T11:36:34;3.42;;;0.93;;
65187;SDS011;51775;51.148;6.950;2023-04-23T11:38:59;3.30;;;1.05;;
65187;SDS011;51775;51.148;6.950;2023-04-23T11:41:24;3.08;;;1.08;;
65187;SDS011;51775;51.148;6.950;2023-04-23T11:43:49;1.98;;;1.10;;
65187;SDS011;51775;51.148;6.950;2023-04-23T11:46:15;3.05;;;1.23;;
65187;SDS011;51775;51.148;6.950;2023-04-23T11:48:40;4.90;;;1.33;;
65187;SDS011;51775;51.148;6.950;2023-04-23T11:51:06;1.90;;;1.00;;
65187;SDS011;51775;51.148;6.950;2023-04-23T11:53:31;2.47;;;0.90;;
65187;SDS011;51775;51.148;6.950;2023-04-23T11:55:56;1.30;;;0.82;;
65187;SDS011;51775;51.148;6.950;2023-04-23T11:58:21;2.30;;;0.90;;
65187;SDS011;51775;51.148;6.950;2023-04-23T12:00:47;1.70;;;0.90;;
65187;SDS011;51775;51.148;6.950;2023-04-23T12:03:12;3.10;;;1.00;;
65187;SDS011;51775;51.148;6.950;2023-04-23T12:05:40;1.60;;;0.90;;
65187;SDS011;51775;51.148;6.950;2023-04-23T12:13:27;2.63;;;1.00;;
65187;SDS011;51775;51.148;6.950;2023-04-23T12:16:03;4.35;;;1.20;;
65187;SDS011;51775;51.148;6.950;2023-04-23T12:18:30;3.72;;;1.40;;
65187;SDS011;51775;51.148;6.950;2023-04-23T12:20:56;4.78;;;1.23;;
65187;SDS011;51775;51.148;6.950;2023-04-23T12:23:32;2.90;;;1.40;;
65187;SDS011;51775;51.148;6.950;2023-04-23T12:25:57;2.85;;;1.20;;
65187;SDS011;51775;51.148;6.950;2023-04-23T12:28:26;3.47;;;1.10;;
65187;SDS011;51775;51.148;6.950;2023-04-23T12:30:51;3.45;;;1.02;;
65187;SDS011;51775;51.148;6.950;2023-04-23T12:33:16;3.22;;;1.38;;
65187;SDS011;51775;51.148;6.950;2023-04-23T12:35:43;3.63;;;1.20;;
65187;SDS011;51775;51.148;6.950;2023-04-23T12:38:20;2.35;;;1.00;;
65187;SDS011;51775;51.148;6.950;2023-04-23T12:40:47;3.58;;;1.17;;
65187;SDS011;51775;51.148;6.950;2023-04-23T12:43:12;2.28;;;1.00;;
65187;SDS011;51775;51.148;6.950;2023-04-23T12:45:37;2.55;;;1.02;;
65187;SDS011;51775;51.148;6.950;2023-04-23T12:48:02;2.08;;;1.00;;
65187;SDS011;51775;51.148;6.950;2023-04-23T12:50:28;2.88;;;1.20;;
65187;SDS011;51775;51.148;6.950;2023-04-23T12:52:53;2.55;;;1.00;;
65187;SDS011;51775;51.148;6.950;2023-04-23T12:55:19;2.13;;;1.10;;
65187;SDS011;51775;51.148;6.950;2023-04-23T12:57:44;1.95;;;1.00;;
65187;SDS011;51775;51.148;6.950;2023-04-23T13:00:09;2.92;;;1.10;;
65187;SDS011;51775;51.148;6.950;2023-04-23T13:02:35;3.47;;;1.02;;
65187;SDS011;51775;51.148;6.950;2023-04-23T13:05:00;3.35;;;1.08;;
65187;SDS011;51775;51.148;6.950;2023-04-23T13:07:25;3.65;;;1.48;;
65187;SDS011;51775;51.148;6.950;2023-04-23T13:09:51;7.30;;;1.50;;
65187;SDS011;51775;51.148;6.950;2023-04-23T13:12:16;5.90;;;1.73;;
65187;SDS011;51775;51.148;6.950;2023-04-23T13:14:41;4.47;;;1.10;;
65187;SDS011;51775;51.148;6.950;2023-04-23T13:17:06;3.45;;;1.08;;
65187;SDS011;51775;51.148;6.950;2023-04-23T13:19:31;5.93;;;1.10;;
65187;SDS011;51775;51.148;6.950;2023-04-23T13:21:57;3.92;;;1.10;;
65187;SDS011;51775;51.148;6.950;2023-04-23T13:24:22;3.45;;;1.20;;
65187;SDS011;51775;51.148;6.950;2023-04-23T13:26:47;4.68;;;1.08;;
65187;SDS011;51775;51.148;6.950;2023-04-23T13:29:13;1.80;;;0.90;;
65187;SDS011;51775;51.148;6.950;2023-04-23T13:31:38;3.28;;;1.48;;
65187;SDS011;51775;51.148;6.950;2023-04-23T13:34:03;3.30;;;1.52;;
65187;SDS011;51775;51.148;6.950;2023-04-23T13:36:29;2.15;;;1.00;;
65187;SDS011;51775;51.148;6.950;2023-04-23T13:39:00;3.25;;;1.00;;
65187;SDS011;51775;51.148;6.950;2023-04-23T13:41:25;2.70;;;1.00;;
65187;SDS011;51775;51.148;6.950;2023-04-23T13:43:50;1.83;;;0.80;;
65187;SDS011;51775;51.148;6.950;2023-04-23T13:46:16;3.40;;;1.00;;
65187;SDS011;51775;51.148;6.950;2023-04-23T13:48:41;3.70;;;1.00;;
65187;SDS011;51775;51.148;6.950;2023-04-23T13:51:06;2.28;;;0.90;;
65187;SDS011;51775;51.148;6.950;2023-04-23T13:53:31;1.75;;;0.90;;
65187;SDS011;51775;51.148;6.950;2023-04-23T13:55:58;2.97;;;1.00;;
65187;SDS011;51775;51.148;6.950;2023-04-23T13:58:23;1.92;;;0.80;;
65187;SDS011;51775;51.148;6.950;2023-04-23T14:00:49;1.83;;;0.88;;
65187;SDS011;51775;51.148;6.950;2023-04-23T14:03:14;4.63;;;1.00;;
65187;SDS011;51775;51.148;6.950;2023-04-23T14:05:39;1.80;;;0.90;;
65187;SDS011;51775;51.148;6.950;2023-04-23T14:08:05;2.42;;;0.80;;
65187;SDS011;51775;51.148;6.950;2023-04-23T14:10:30;2.15;;;0.80;;
65187;SDS011;51775;51.148;6.950;2023-04-23T14:12:55;2.20;;;0.88;;
65187;SDS011;51775;51.148;6.950;2023-04-23T14:15:21;3.00;;;0.95;;
65187;SDS011;51775;51.148;6.950;2023-04-23T14:17:46;1.38;;;0.63;;
65187;SDS011;51775;51.148;6.950;2023-04-23T14:20:12;3.03;;;0.90;;
65187;SDS011;51775;51.148;6.950;2023-04-23T14:22:38;2.17;;;0.85;;
65187;SDS011;51775;51.148;6.950;2023-04-23T14:25:07;2.03;;;0.90;;
65187;SDS011;51775;51.148;6.950;2023-04-23T14:27:43;2.92;;;0.90;;
65187;SDS011;51775;51.148;6.950;2023-04-23T14:30:14;1.90;;;0.85;;
65187;SDS011;51775;51.148;6.950;2023-04-23T14:32:40;1.77;;;0.70;;
65187;SDS011;51775;51.148;6.950;2023-04-23T14:35:06;1.83;;;0.90;;
65187;SDS011;51775;51.148;6.950;2023-04-23T14:37:31;2.03;;;0.70;;
65187;SDS011;51775;51.148;6.950;2023-04-23T14:39:56;2.10;;;1.00;;
65187;SDS011;51775;51.148;6.950;2023-04-23T14:42:23;1.37;;;0.60;;
65187;SDS011;51775;51.148;6.950;2023-04-23T14:44:48;2.88;;;0.80;;
65187;SDS011;51775;51.148;6.950;2023-04-23T14:47:16;1.92;;;0.68;;
65187;SDS011;51775;51.148;6.950;2023-04-23T14:49:42;1.40;;;0.70;;
65187;SDS011;51775;51.148;6.950;2023-04-23T14:52:09;2.53;;;0.80;;